sensor_id;sensor_type;location;lat;lon;timestamp;P1;durP1;ratioP1;P2;durP2;ratioP2
27847;SDS011;15212;48.830;8.730;2023-09-12T00:00:53;10.70;;;6.25;;
27847;SDS011;15212;48.830;8.730;2023-09-12T00:03:23;13.85;;;6.80;;
27847;SDS011;15212;48.830;8.730;2023-09-12T00:05:55;12.00;;;6.58;;
27847;SDS011;15212;48.830;8.730;2023-09-12T00:08:25;15.68;;;6.28;;
27847;SDS011;15212;48.830;8.730;2023-09-12T00:13:38;13.93;;;6.47;;
27847;SDS011;15212;48.830;8.730;2023-09-12T00:16:07;11.97;;;6.60;;
27847;SDS011;15212;48.830;8.730;2023-09-12T00:18:39;18.57;;;7.33;;
27847;SDS011;15212;48.830;8.730;2023-09-12T00:21:08;16.93;;;6.70;;
27847;SDS011;15212;48.830;8.730;2023-09-12T00:23:37;11.65;;;6.47;;
27847;SDS011;15212;48.830;8.730;2023-09-12T00:26:05;11.28;;;6.78;;
27847;SDS011;15212;48.830;8.730;2023-09-12T00:28:33;14.13;;;7.03;;
27847;SDS011;15212;48.830;8.730;2023-09-12T00:31:03;14.43;;;6.50;;
27847;SDS011;15212;48.830;8.730;2023-09-12T00:33:31;11.85;;;6.08;;
27847;SDS011;15212;48.830;8.730;2023-09-12T00:36:00;13.83;;;6.72;;
27847;SDS011;15212;48.830;8.730;2023-09-12T00:38:28;14.90;;;6.78;;
27847;SDS011;15212;48.830;8.730;2023-09-12T00:40:56;10.70;;;6.10;;
27847;SDS011;15212;48.830;8.730;2023-09-12T00:43:25;17.62;;;6.75;;
27847;SDS011;15212;48.830;8.730;2023-09-12T00:45:53;15.90;;;6.42;;
27847;SDS011;15212;48.830;8.730;2023-09-12T00:48:22;14.65;;;6.10;;
27847;SDS011;15212;48.830;8.730;2023-09-12T00:50:51;11.03;;;6.20;;
27847;SDS011;15212;48.830;8.730;2023-09-12T00:53:21;10.35;;;6.28;;
27847;SDS011;15212;48.830;8.730;2023-09-12T00:55:56;17.30;;;7.15;;
27847;SDS011;15212;48.830;8.730;2023-09-12T00:58:23;10.75;;;6.03;;
27847;SDS011;15212;48.830;8.730;2023-09-12T01:00:53;21.62;;;6.62;;
27847;SDS011;15212;48.830;8.730;2023-09-12T01:03:22;13.03;;;6.65;;
27847;SDS011;15212;48.830;8.730;2023-09-12T01:05:50;12.28;;;6.75;;
27847;SDS011;15212;48.830;8.730;2023-09-12T01:08:19;15.80;;;6.15;;
27847;SDS011;15212;48.830;8.730;2023-09-12T01:10:47;13.62;;;6.45;;
27847;SDS011;15212;48.830;8.730;2023-09-12T01:13:19;12.55;;;6.45;;
27847;SDS011;15212;48.830;8.730;2023-09-12T01:15:48;15.05;;;6.40;;
27847;SDS011;15212;48.830;8.730;2023-09-12T01:18:17;13.25;;;6.58;;
27847;SDS011;15212;48.830;8.730;2023-09-12T01:20:54;14.85;;;6.58;;
27847;SDS011;15212;48.830;8.730;2023-09-12T01:23:29;16.12;;;6.35;;
27847;SDS011;15212;48.830;8.730;2023-09-12T01:26:40;15.30;;;6.80;;
27847;SDS011;15212;48.830;8.730;2023-09-12T01:29:21;12.60;;;6.60;;
27847;SDS011;15212;48.830;8.730;2023-09-12T01:31:51;15.00;;;6.75;;
27847;SDS011;15212;48.830;8.730;2023-09-12T01:34:21;12.13;;;6.37;;
27847;SDS011;15212;48.830;8.730;2023-09-12T01:36:49;14.33;;;6.70;;
27847;SDS011;15212;48.830;8.730;2023-09-12T01:39:17;18.15;;;6.70;;
27847;SDS011;15212;48.830;8.730;2023-09-12T01:41:46;16.32;;;6.90;;
27847;SDS011;15212;48.830;8.730;2023-09-12T01:44:17;17.20;;;6.90;;
27847;SDS011;15212;48.830;8.730;2023-09-12T01:46:48;15.60;;;6.83;;
27847;SDS011;15212;48.830;8.730;2023-09-12T01:49:19;12.20;;;6.65;;
27847;SDS011;15212;48.830;8.730;2023-09-12T01:51:51;14.13;;;6.58;;
27847;SDS011;15212;48.830;8.730;2023-09-12T01:54:20;10.50;;;6.47;;
27847;SDS011;15212;48.830;8.730;2023-09-12T01:56:50;13.90;;;7.00;;
27847;SDS011;15212;48.830;8.730;2023-09-12T01:59:18;15.38;;;7.00;;
27847;SDS011;15212;48.830;8.730;2023-09-12T02:01:47;13.22;;;6.87;;
27847;SDS011;15212;48.830;8.730;2023-09-12T02:04:15;16.37;;;6.90;;
27847;SDS011;15212;48.830;8.730;2023-09-12T02:06:44;16.17;;;6.72;;
27847;SDS011;15212;48.830;8.730;2023-09-12T02:09:12;12.15;;;6.33;;
27847;SDS011;15212;48.830;8.730;2023-09-12T02:11:40;16.02;;;7.10;;
27847;SDS011;15212;48.830;8.730;2023-09-12T02:14:09;16.70;;;6.75;;
27847;SDS011;15212;48.830;8.730;2023-09-12T02:16:37;13.13;;;7.20;;
27847;SDS011;15212;48.830;8.730;2023-09-12T02:19:06;20.12;;;7.50;;
27847;SDS011;15212;48.830;8.730;2023-09-12T02:21:34;13.40;;;6.60;;
27847;SDS011;15212;48.830;8.730;2023-09-12T02:24:02;13.38;;;6.90;;
27847;SDS011;15212;48.830;8.730;2023-09-12T02:26:31;9.38;;;6.40;;
27847;SDS011;15212;48.830;8.730;2023-09-12T02:29:02;13.93;;;6.83;;
27847;SDS011;15212;48.830;8.730;2023-09-12T02:31:35;11.38;;;7.00;;
27847;SDS011;15212;48.830;8.730;2023-09-12T02:34:03;17.00;;;6.42;;
27847;SDS011;15212;48.830;8.730;2023-09-12T02:36:32;12.13;;;6.78;;
27847;SDS011;15212;48.830;8.730;2023-09-12T02:39:00;14.03;;;6.78;;
27847;SDS011;15212;48.830;8.730;2023-09-12T02:41:29;14.03;;;6.33;;
27847;SDS011;15212;48.830;8.730;2023-09-12T02:43:57;10.78;;;6.50;;
27847;SDS011;15212;48.830;8.730;2023-09-12T02:46:26;16.80;;;6.33;;
27847;SDS011;15212;48.830;8.730;2023-09-12T02:48:54;16.37;;;6.78;;
27847;SDS011;15212;48.830;8.730;2023-09-12T02:51:22;11.80;;;6.90;;
27847;SDS011;15212;48.830;8.730;2023-09-12T02:53:52;18.35;;;7.12;;
27847;SDS011;15212;48.830;8.730;2023-09-12T02:56:21;18.12;;;6.80;;
27847;SDS011;15212;48.830;8.730;2023-09-12T02:58:49;13.78;;;6.65;;
27847;SDS011;15212;48.830;8.730;2023-09-12T03:01:18;18.27;;;7.17;;
27847;SDS011;15212;48.830;8.730;2023-09-12T03:03:48;13.03;;;6.97;;
27847;SDS011;15212;48.830;8.730;2023-09-12T03:06:16;15.40;;;7.30;;
27847;SDS011;15212;48.830;8.730;2023-09-12T03:08:45;19.80;;;6.87;;
27847;SDS011;15212;48.830;8.730;2023-09-12T03:11:15;11.80;;;6.60;;
27847;SDS011;15212;48.830;8.730;2023-09-12T03:13:43;10.85;;;6.30;;
27847;SDS011;15212;48.830;8.730;2023-09-12T03:16:13;14.65;;;6.80;;
27847;SDS011;15212;48.830;8.730;2023-09-12T03:18:42;14.03;;;7.05;;
27847;SDS011;15212;48.830;8.730;2023-09-12T03:21:10;11.30;;;6.53;;
27847;SDS011;15212;48.830;8.730;2023-09-12T03:23:38;10.70;;;6.42;;
27847;SDS011;15212;48.830;8.730;2023-09-12T03:26:07;12.70;;;6.58;;
27847;SDS011;15212;48.830;8.730;2023-09-12T03:28:35;14.25;;;6.85;;
27847;SDS011;15212;48.830;8.730;2023-09-12T03:31:07;14.05;;;6.42;;
27847;SDS011;15212;48.830;8.730;2023-09-12T03:33:39;9.98;;;6.12;;
27847;SDS011;15212;48.830;8.730;2023-09-12T03:36:10;13.65;;;6.37;;
27847;SDS011;15212;48.830;8.730;2023-09-12T03:38:39;23.10;;;6.92;;
27847;SDS011;15212;48.830;8.730;2023-09-12T03:41:08;9.80;;;6.15;;
27847;SDS011;15212;48.830;8.730;2023-09-12T03:43:36;13.60;;;6.67;;
27847;SDS011;15212;48.830;8.730;2023-09-12T03:46:04;13.22;;;6.60;;
27847;SDS011;15212;48.830;8.730;2023-09-12T03:48:33;16.50;;;6.45;;
27847;SDS011;15212;48.830;8.730;2023-09-12T03:51:02;13.53;;;6.22;;
27847;SDS011;15212;48.830;8.730;2023-09-12T03:53:31;14.25;;;6.55;;
27847;SDS011;15212;48.830;8.730;2023-09-12T03:55:59;11.25;;;6.42;;
27847;SDS011;15212;48.830;8.730;2023-09-12T03:58:28;12.82;;;6.83;;
27847;SDS011;15212;48.830;8.730;2023-09-12T04:00:56;12.65;;;6.55;;
27847;SDS011;15212;48.830;8.730;2023-09-12T04:03:24;14.73;;;7.58;;
27847;SDS011;15212;48.830;8.730;2023-09-12T04:05:53;11.95;;;6.35;;
27847;SDS011;15212;48.830;8.730;2023-09-12T04:08:21;12.68;;;6.75;;
27847;SDS011;15212;48.830;8.730;2023-09-12T04:10:50;15.95;;;7.05;;
27847;SDS011;15212;48.830;8.730;2023-09-12T04:13:18;18.80;;;6.72;;
27847;SDS011;15212;48.830;8.730;2023-09-12T04:15:47;12.47;;;7.12;;
27847;SDS011;15212;48.830;8.730;2023-09-12T04:18:15;13.65;;;6.90;;
27847;SDS011;15212;48.830;8.730;2023-09-12T04:20:44;12.80;;;6.80;;
27847;SDS011;15212;48.830;8.730;2023-09-12T04:23:12;17.90;;;6.42;;
27847;SDS011;15212;48.830;8.730;2023-09-12T04:25:45;13.55;;;6.70;;
27847;SDS011;15212;48.830;8.730;2023-09-12T04:28:14;13.05;;;6.80;;
27847;SDS011;15212;48.830;8.730;2023-09-12T04:30:42;11.70;;;6.83;;
27847;SDS011;15212;48.830;8.730;2023-09-12T04:33:10;15.72;;;6.90;;
27847;SDS011;15212;48.830;8.730;2023-09-12T04:35:39;11.28;;;6.90;;
27847;SDS011;15212;48.830;8.730;2023-09-12T04:38:07;13.43;;;6.65;;
27847;SDS011;15212;48.830;8.730;2023-09-12T04:40:35;11.08;;;6.08;;
27847;SDS011;15212;48.830;8.730;2023-09-12T04:43:05;12.73;;;7.15;;
27847;SDS011;15212;48.830;8.730;2023-09-12T04:45:33;11.05;;;7.10;;
27847;SDS011;15212;48.830;8.730;2023-09-12T04:48:02;12.23;;;6.90;;
27847;SDS011;15212;48.830;8.730;2023-09-12T04:50:30;14.07;;;6.78;;
27847;SDS011;15212;48.830;8.730;2023-09-12T04:52:59;13.68;;;7.05;;
27847;SDS011;15212;48.830;8.730;2023-09-12T04:55:27;11.97;;;6.90;;
27847;SDS011;15212;48.830;8.730;2023-09-12T04:57:56;11.18;;;6.58;;
27847;SDS011;15212;48.830;8.730;2023-09-12T05:00:24;13.30;;;6.65;;
27847;SDS011;15212;48.830;8.730;2023-09-12T05:02:52;13.28;;;7.15;;
27847;SDS011;15212;48.830;8.730;2023-09-12T05:05:21;12.18;;;7.00;;
27847;SDS011;15212;48.830;8.730;2023-09-12T05:07:50;9.90;;;6.22;;
27847;SDS011;15212;48.830;8.730;2023-09-12T05:10:18;13.83;;;6.90;;
27847;SDS011;15212;48.830;8.730;2023-09-12T05:12:46;12.23;;;7.08;;
27847;SDS011;15212;48.830;8.730;2023-09-12T05:15:15;11.63;;;6.78;;
27847;SDS011;15212;48.830;8.730;2023-09-12T05:17:43;17.30;;;6.92;;
27847;SDS011;15212;48.830;8.730;2023-09-12T05:20:12;14.75;;;6.60;;
27847;SDS011;15212;48.830;8.730;2023-09-12T05:22:40;9.30;;;6.40;;
27847;SDS011;15212;48.830;8.730;2023-09-12T05:25:08;8.80;;;6.28;;
27847;SDS011;15212;48.830;8.730;2023-09-12T05:27:37;16.85;;;7.22;;
27847;SDS011;15212;48.830;8.730;2023-09-12T05:30:05;13.10;;;7.33;;
27847;SDS011;15212;48.830;8.730;2023-09-12T05:32:34;10.10;;;7.35;;
27847;SDS011;15212;48.830;8.730;2023-09-12T05:35:02;9.85;;;6.42;;
27847;SDS011;15212;48.830;8.730;2023-09-12T05:37:31;14.33;;;6.62;;
27847;SDS011;15212;48.830;8.730;2023-09-12T05:40:00;14.87;;;7.28;;
27847;SDS011;15212;48.830;8.730;2023-09-12T05:42:29;14.35;;;7.15;;
27847;SDS011;15212;48.830;8.730;2023-09-12T05:44:57;11.25;;;6.92;;
27847;SDS011;15212;48.830;8.730;2023-09-12T05:47:25;12.10;;;7.30;;
27847;SDS011;15212;48.830;8.730;2023-09-12T05:49:54;10.32;;;7.10;;
27847;SDS011;15212;48.830;8.730;2023-09-12T05:52:24;13.25;;;7.37;;
27847;SDS011;15212;48.830;8.730;2023-09-12T05:54:53;15.03;;;7.00;;
27847;SDS011;15212;48.830;8.730;2023-09-12T05:57:21;13.48;;;7.20;;
27847;SDS011;15212;48.830;8.730;2023-09-12T05:59:50;15.18;;;7.53;;
27847;SDS011;15212;48.830;8.730;2023-09-12T06:02:18;12.00;;;7.28;;
27847;SDS011;15212;48.830;8.730;2023-09-12T06:04:47;12.70;;;7.85;;
27847;SDS011;15212;48.830;8.730;2023-09-12T06:07:16;16.10;;;7.72;;
27847;SDS011;15212;48.830;8.730;2023-09-12T06:09:45;13.22;;;7.60;;
27847;SDS011;15212;48.830;8.730;2023-09-12T06:12:13;13.55;;;7.50;;
27847;SDS011;15212;48.830;8.730;2023-09-12T06:14:42;12.30;;;8.25;;
27847;SDS011;15212;48.830;8.730;2023-09-12T06:17:10;13.43;;;7.62;;
27847;SDS011;15212;48.830;8.730;2023-09-12T06:19:38;10.28;;;7.30;;
27847;SDS011;15212;48.830;8.730;2023-09-12T06:22:07;10.65;;;7.33;;
27847;SDS011;15212;48.830;8.730;2023-09-12T06:24:35;16.48;;;8.03;;
27847;SDS011;15212;48.830;8.730;2023-09-12T06:27:05;12.80;;;7.55;;
27847;SDS011;15212;48.830;8.730;2023-09-12T06:29:33;15.28;;;7.55;;
27847;SDS011;15212;48.830;8.730;2023-09-12T06:32:01;12.78;;;7.70;;
27847;SDS011;15212;48.830;8.730;2023-09-12T06:34:30;13.22;;;8.35;;
27847;SDS011;15212;48.830;8.730;2023-09-12T06:36:58;13.25;;;8.18;;
27847;SDS011;15212;48.830;8.730;2023-09-12T06:39:27;16.25;;;7.75;;
27847;SDS011;15212;48.830;8.730;2023-09-12T06:41:55;10.20;;;7.55;;
27847;SDS011;15212;48.830;8.730;2023-09-12T06:44:24;11.25;;;7.87;;
27847;SDS011;15212;48.830;8.730;2023-09-12T06:46:52;15.53;;;7.70;;
27847;SDS011;15212;48.830;8.730;2023-09-12T06:49:20;13.45;;;8.08;;
27847;SDS011;15212;48.830;8.730;2023-09-12T06:51:49;11.05;;;7.28;;
27847;SDS011;15212;48.830;8.730;2023-09-12T06:54:17;11.53;;;7.62;;
27847;SDS011;15212;48.830;8.730;2023-09-12T06:56:46;11.45;;;7.70;;
27847;SDS011;15212;48.830;8.730;2023-09-12T06:59:15;13.93;;;8.13;;
27847;SDS011;15212;48.830;8.730;2023-09-12T07:01:44;16.05;;;7.72;;
27847;SDS011;15212;48.830;8.730;2023-09-12T07:04:12;10.95;;;7.97;;
27847;SDS011;15212;48.830;8.730;2023-09-12T07:06:40;11.50;;;7.87;;
27847;SDS011;15212;48.830;8.730;2023-09-12T07:09:09;11.68;;;7.20;;
27847;SDS011;15212;48.830;8.730;2023-09-12T07:11:39;11.30;;;7.35;;
27847;SDS011;15212;48.830;8.730;2023-09-12T07:14:10;11.60;;;7.25;;
27847;SDS011;15212;48.830;8.730;2023-09-12T07:16:39;13.95;;;7.50;;
27847;SDS011;15212;48.830;8.730;2023-09-12T07:19:08;13.62;;;7.28;;
27847;SDS011;15212;48.830;8.730;2023-09-12T07:21:36;11.08;;;6.80;;
27847;SDS011;15212;48.830;8.730;2023-09-12T07:24:05;12.33;;;7.65;;
27847;SDS011;15212;48.830;8.730;2023-09-12T07:26:33;13.22;;;6.60;;
27847;SDS011;15212;48.830;8.730;2023-09-12T07:29:01;14.75;;;7.22;;
27847;SDS011;15212;48.830;8.730;2023-09-12T07:31:31;11.93;;;7.15;;
27847;SDS011;15212;48.830;8.730;2023-09-12T07:34:00;14.25;;;6.85;;
27847;SDS011;15212;48.830;8.730;2023-09-12T07:36:28;11.00;;;6.60;;
27847;SDS011;15212;48.830;8.730;2023-09-12T07:38:56;9.95;;;6.95;;
27847;SDS011;15212;48.830;8.730;2023-09-12T07:41:25;8.55;;;5.83;;
27847;SDS011;15212;48.830;8.730;2023-09-12T07:43:53;12.90;;;6.50;;
27847;SDS011;15212;48.830;8.730;2023-09-12T07:46:22;13.98;;;6.55;;
27847;SDS011;15212;48.830;8.730;2023-09-12T07:48:50;11.18;;;6.15;;
27847;SDS011;15212;48.830;8.730;2023-09-12T07:51:18;13.22;;;6.33;;
27847;SDS011;15212;48.830;8.730;2023-09-12T07:53:48;12.30;;;6.65;;
27847;SDS011;15212;48.830;8.730;2023-09-12T07:56:17;10.13;;;6.00;;
27847;SDS011;15212;48.830;8.730;2023-09-12T07:58:45;10.80;;;5.97;;
27847;SDS011;15212;48.830;8.730;2023-09-12T08:01:15;12.30;;;6.08;;
27847;SDS011;15212;48.830;8.730;2023-09-12T08:03:43;12.23;;;5.95;;
27847;SDS011;15212;48.830;8.730;2023-09-12T08:06:12;10.25;;;6.37;;
27847;SDS011;15212;48.830;8.730;2023-09-12T08:08:41;9.38;;;6.25;;
27847;SDS011;15212;48.830;8.730;2023-09-12T08:11:09;8.65;;;5.80;;
27847;SDS011;15212;48.830;8.730;2023-09-12T08:13:38;11.57;;;6.22;;
27847;SDS011;15212;48.830;8.730;2023-09-12T08:16:06;12.55;;;6.35;;
27847;SDS011;15212;48.830;8.730;2023-09-12T08:18:34;13.38;;;6.30;;
27847;SDS011;15212;48.830;8.730;2023-09-12T08:21:03;8.65;;;6.78;;
27847;SDS011;15212;48.830;8.730;2023-09-12T08:23:31;16.40;;;6.95;;
27847;SDS011;15212;48.830;8.730;2023-09-12T08:26:00;9.73;;;6.12;;
27847;SDS011;15212;48.830;8.730;2023-09-12T08:28:28;11.85;;;6.78;;
27847;SDS011;15212;48.830;8.730;2023-09-12T08:30:57;11.93;;;6.65;;
27847;SDS011;15212;48.830;8.730;2023-09-12T08:33:25;9.85;;;6.70;;
27847;SDS011;15212;48.830;8.730;2023-09-12T08:35:53;10.30;;;6.78;;
27847;SDS011;15212;48.830;8.730;2023-09-12T08:38:22;11.25;;;6.17;;
27847;SDS011;15212;48.830;8.730;2023-09-12T08:40:51;11.12;;;6.55;;
27847;SDS011;15212;48.830;8.730;2023-09-12T08:43:20;9.70;;;6.42;;
27847;SDS011;15212;48.830;8.730;2023-09-12T08:45:48;10.72;;;6.12;;
27847;SDS011;15212;48.830;8.730;2023-09-12T08:48:18;10.13;;;6.40;;
27847;SDS011;15212;48.830;8.730;2023-09-12T08:50:49;13.48;;;6.58;;
27847;SDS011;15212;48.830;8.730;2023-09-12T08:53:19;13.20;;;6.37;;
27847;SDS011;15212;48.830;8.730;2023-09-12T08:58:37;9.93;;;6.25;;
27847;SDS011;15212;48.830;8.730;2023-09-12T09:01:06;9.98;;;6.22;;
27847;SDS011;15212;48.830;8.730;2023-09-12T09:03:37;10.70;;;6.10;;
27847;SDS011;15212;48.830;8.730;2023-09-12T09:06:09;11.33;;;6.12;;
27847;SDS011;15212;48.830;8.730;2023-09-12T09:08:39;9.80;;;5.90;;
27847;SDS011;15212;48.830;8.730;2023-09-12T09:11:10;12.73;;;6.60;;
27847;SDS011;15212;48.830;8.730;2023-09-12T09:13:38;15.30;;;6.58;;
27847;SDS011;15212;48.830;8.730;2023-09-12T09:16:14;9.30;;;6.37;;
27847;SDS011;15212;48.830;8.730;2023-09-12T09:21:31;9.00;;;6.22;;
27847;SDS011;15212;48.830;8.730;2023-09-12T09:24:04;8.60;;;6.17;;
27847;SDS011;15212;48.830;8.730;2023-09-12T09:26:41;12.28;;;6.58;;
27847;SDS011;15212;48.830;8.730;2023-09-12T09:29:16;9.80;;;6.03;;
27847;SDS011;15212;48.830;8.730;2023-09-12T09:31:43;8.98;;;6.08;;
27847;SDS011;15212;48.830;8.730;2023-09-12T09:34:14;11.53;;;5.92;;
27847;SDS011;15212;48.830;8.730;2023-09-12T09:36:49;11.68;;;6.40;;
27847;SDS011;15212;48.830;8.730;2023-09-12T09:39:23;11.70;;;6.33;;
27847;SDS011;15212;48.830;8.730;2023-09-12T09:41:55;12.03;;;6.67;;
27847;SDS011;15212;48.830;8.730;2023-09-12T09:44:25;8.98;;;6.15;;
27847;SDS011;15212;48.830;8.730;2023-09-12T09:46:59;11.33;;;6.15;;
27847;SDS011;15212;48.830;8.730;2023-09-12T09:49:31;12.20;;;5.75;;
27847;SDS011;15212;48.830;8.730;2023-09-12T09:52:03;10.28;;;6.05;;
27847;SDS011;15212;48.830;8.730;2023-09-12T09:54:32;14.85;;;6.58;;
27847;SDS011;15212;48.830;8.730;2023-09-12T09:57:01;10.78;;;6.20;;
27847;SDS011;15212;48.830;8.730;2023-09-12T09:59:31;9.28;;;6.28;;
27847;SDS011;15212;48.830;8.730;2023-09-12T10:01:59;9.88;;;6.12;;
27847;SDS011;15212;48.830;8.730;2023-09-12T10:04:29;10.63;;;6.10;;
27847;SDS011;15212;48.830;8.730;2023-09-12T10:06:59;12.10;;;6.30;;
27847;SDS011;15212;48.830;8.730;2023-09-12T10:09:28;9.68;;;5.45;;
27847;SDS011;15212;48.830;8.730;2023-09-12T10:11:59;11.05;;;6.70;;
27847;SDS011;15212;48.830;8.730;2023-09-12T10:14:28;11.03;;;6.50;;
27847;SDS011;15212;48.830;8.730;2023-09-12T10:17:02;16.48;;;7.08;;
27847;SDS011;15212;48.830;8.730;2023-09-12T10:19:35;10.15;;;6.20;;
27847;SDS011;15212;48.830;8.730;2023-09-12T10:22:09;10.18;;;6.22;;
27847;SDS011;15212;48.830;8.730;2023-09-12T10:24:56;12.07;;;7.00;;
27847;SDS011;15212;48.830;8.730;2023-09-12T10:27:25;17.17;;;6.42;;
27847;SDS011;15212;48.830;8.730;2023-09-12T10:29:53;16.67;;;7.00;;
27847;SDS011;15212;48.830;8.730;2023-09-12T10:32:24;12.13;;;6.60;;
27847;SDS011;15212;48.830;8.730;2023-09-12T10:34:54;11.97;;;5.90;;
27847;SDS011;15212;48.830;8.730;2023-09-12T10:37:26;11.45;;;6.30;;
27847;SDS011;15212;48.830;8.730;2023-09-12T10:39:56;8.25;;;5.72;;
27847;SDS011;15212;48.830;8.730;2023-09-12T10:42:27;8.58;;;5.87;;
27847;SDS011;15212;48.830;8.730;2023-09-12T10:44:56;10.20;;;5.87;;
27847;SDS011;15212;48.830;8.730;2023-09-12T10:47:26;9.45;;;5.85;;
27847;SDS011;15212;48.830;8.730;2023-09-12T10:49:56;10.75;;;6.40;;
27847;SDS011;15212;48.830;8.730;2023-09-12T10:52:28;10.28;;;6.17;;
27847;SDS011;15212;48.830;8.730;2023-09-12T10:54:56;11.43;;;6.12;;
27847;SDS011;15212;48.830;8.730;2023-09-12T10:57:26;11.33;;;6.28;;
27847;SDS011;15212;48.830;8.730;2023-09-12T11:02:37;12.15;;;5.78;;
27847;SDS011;15212;48.830;8.730;2023-09-12T11:08:01;12.45;;;6.08;;
27847;SDS011;15212;48.830;8.730;2023-09-12T11:10:32;8.55;;;5.83;;
27847;SDS011;15212;48.830;8.730;2023-09-12T11:13:01;10.38;;;6.10;;
27847;SDS011;15212;48.830;8.730;2023-09-12T11:15:29;8.10;;;5.80;;
27847;SDS011;15212;48.830;8.730;2023-09-12T11:18:05;9.43;;;6.00;;
27847;SDS011;15212;48.830;8.730;2023-09-12T11:20:59;10.13;;;5.45;;
27847;SDS011;15212;48.830;8.730;2023-09-12T11:23:18;8.48;;;5.65;;
27847;SDS011;15212;48.830;8.730;2023-09-12T11:26:06;10.38;;;5.72;;
27847;SDS011;15212;48.830;8.730;2023-09-12T11:28:34;12.88;;;6.00;;
27847;SDS011;15212;48.830;8.730;2023-09-12T11:31:03;10.05;;;5.75;;
27847;SDS011;15212;48.830;8.730;2023-09-12T11:33:32;17.15;;;5.92;;
27847;SDS011;15212;48.830;8.730;2023-09-12T11:36:00;10.70;;;6.30;;
27847;SDS011;15212;48.830;8.730;2023-09-12T11:38:32;10.03;;;5.40;;
27847;SDS011;15212;48.830;8.730;2023-09-12T11:41:00;9.15;;;5.70;;
27847;SDS011;15212;48.830;8.730;2023-09-12T11:43:28;9.05;;;5.60;;
27847;SDS011;15212;48.830;8.730;2023-09-12T11:45:58;9.65;;;6.00;;
27847;SDS011;15212;48.830;8.730;2023-09-12T11:48:29;12.47;;;6.20;;
27847;SDS011;15212;48.830;8.730;2023-09-12T11:50:57;11.88;;;5.97;;
27847;SDS011;15212;48.830;8.730;2023-09-12T11:53:27;7.95;;;5.75;;
27847;SDS011;15212;48.830;8.730;2023-09-12T11:55:58;10.35;;;6.10;;
27847;SDS011;15212;48.830;8.730;2023-09-12T11:58:27;12.20;;;6.12;;
27847;SDS011;15212;48.830;8.730;2023-09-12T12:00:57;10.68;;;5.75;;
27847;SDS011;15212;48.830;8.730;2023-09-12T12:03:26;9.98;;;5.97;;
27847;SDS011;15212;48.830;8.730;2023-09-12T12:05:55;7.97;;;5.65;;
27847;SDS011;15212;48.830;8.730;2023-09-12T12:08:24;10.60;;;6.00;;
27847;SDS011;15212;48.830;8.730;2023-09-12T12:10:53;9.80;;;5.83;;
27847;SDS011;15212;48.830;8.730;2023-09-12T12:13:22;7.15;;;5.60;;
27847;SDS011;15212;48.830;8.730;2023-09-12T12:15:50;8.28;;;5.45;;
27847;SDS011;15212;48.830;8.730;2023-09-12T12:18:19;7.67;;;5.80;;
27847;SDS011;15212;48.830;8.730;2023-09-12T12:20:47;10.25;;;5.80;;
27847;SDS011;15212;48.830;8.730;2023-09-12T12:23:15;9.65;;;5.40;;
27847;SDS011;15212;48.830;8.730;2023-09-12T12:25:44;15.08;;;5.40;;
27847;SDS011;15212;48.830;8.730;2023-09-12T12:28:12;9.18;;;6.05;;
27847;SDS011;15212;48.830;8.730;2023-09-12T12:30:41;11.95;;;5.92;;
27847;SDS011;15212;48.830;8.730;2023-09-12T12:33:09;11.45;;;6.10;;
27847;SDS011;15212;48.830;8.730;2023-09-12T12:35:38;8.30;;;5.45;;
27847;SDS011;15212;48.830;8.730;2023-09-12T12:38:06;7.62;;;5.67;;
27847;SDS011;15212;48.830;8.730;2023-09-12T12:40:37;9.75;;;5.97;;
27847;SDS011;15212;48.830;8.730;2023-09-12T12:43:17;11.83;;;6.00;;
27847;SDS011;15212;48.830;8.730;2023-09-12T12:45:53;7.10;;;5.65;;
27847;SDS011;15212;48.830;8.730;2023-09-12T12:48:29;12.70;;;6.53;;
27847;SDS011;15212;48.830;8.730;2023-09-12T12:51:00;10.40;;;5.78;;
27847;SDS011;15212;48.830;8.730;2023-09-12T12:54:02;7.28;;;6.00;;
27847;SDS011;15212;48.830;8.730;2023-09-12T12:56:29;8.78;;;6.92;;
27847;SDS011;15212;48.830;8.730;2023-09-12T12:58:56;10.78;;;6.42;;
27847;SDS011;15212;48.830;8.730;2023-09-12T13:01:29;8.85;;;6.30;;
27847;SDS011;15212;48.830;8.730;2023-09-12T13:03:57;8.35;;;5.72;;
27847;SDS011;15212;48.830;8.730;2023-09-12T13:06:26;10.75;;;6.00;;
27847;SDS011;15212;48.830;8.730;2023-09-12T13:08:55;8.20;;;5.85;;
27847;SDS011;15212;48.830;8.730;2023-09-12T13:11:27;7.53;;;5.58;;
27847;SDS011;15212;48.830;8.730;2023-09-12T13:13:55;7.45;;;5.70;;
27847;SDS011;15212;48.830;8.730;2023-09-12T13:16:24;8.30;;;5.85;;
27847;SDS011;15212;48.830;8.730;2023-09-12T13:18:52;11.28;;;5.87;;
27847;SDS011;15212;48.830;8.730;2023-09-12T13:21:21;6.55;;;5.70;;
27847;SDS011;15212;48.830;8.730;2023-09-12T13:23:49;7.80;;;5.62;;
27847;SDS011;15212;48.830;8.730;2023-09-12T13:26:17;10.00;;;5.40;;
27847;SDS011;15212;48.830;8.730;2023-09-12T13:28:46;7.90;;;5.42;;
27847;SDS011;15212;48.830;8.730;2023-09-12T13:31:14;8.75;;;5.55;;
27847;SDS011;15212;48.830;8.730;2023-09-12T13:33:42;8.53;;;5.60;;
27847;SDS011;15212;48.830;8.730;2023-09-12T13:36:11;9.73;;;5.80;;
27847;SDS011;15212;48.830;8.730;2023-09-12T13:38:39;9.33;;;5.55;;
27847;SDS011;15212;48.830;8.730;2023-09-12T13:41:07;7.03;;;5.37;;
27847;SDS011;15212;48.830;8.730;2023-09-12T13:43:36;10.00;;;5.08;;
27847;SDS011;15212;48.830;8.730;2023-09-12T13:46:04;8.40;;;5.40;;
27847;SDS011;15212;48.830;8.730;2023-09-12T13:48:34;7.95;;;5.30;;
27847;SDS011;15212;48.830;8.730;2023-09-12T13:51:03;9.03;;;5.12;;
27847;SDS011;15212;48.830;8.730;2023-09-12T13:53:31;9.60;;;5.10;;
27847;SDS011;15212;48.830;8.730;2023-09-12T13:55:59;8.43;;;5.12;;
27847;SDS011;15212;48.830;8.730;2023-09-12T13:58:28;8.65;;;4.92;;
27847;SDS011;15212;48.830;8.730;2023-09-12T14:00:56;8.00;;;5.15;;
27847;SDS011;15212;48.830;8.730;2023-09-12T14:03:24;8.05;;;4.97;;
27847;SDS011;15212;48.830;8.730;2023-09-12T14:05:53;9.35;;;5.50;;
27847;SDS011;15212;48.830;8.730;2023-09-12T14:08:21;10.25;;;5.37;;
27847;SDS011;15212;48.830;8.730;2023-09-12T14:10:50;9.03;;;5.25;;
27847;SDS011;15212;48.830;8.730;2023-09-12T14:13:18;7.08;;;5.20;;
27847;SDS011;15212;48.830;8.730;2023-09-12T14:15:47;8.15;;;5.05;;
27847;SDS011;15212;48.830;8.730;2023-09-12T14:18:19;7.97;;;5.17;;
27847;SDS011;15212;48.830;8.730;2023-09-12T14:20:47;7.90;;;5.10;;
27847;SDS011;15212;48.830;8.730;2023-09-12T14:23:17;6.95;;;5.28;;
27847;SDS011;15212;48.830;8.730;2023-09-12T14:25:46;8.83;;;5.33;;
27847;SDS011;15212;48.830;8.730;2023-09-12T14:28:17;8.50;;;5.08;;
27847;SDS011;15212;48.830;8.730;2023-09-12T14:30:45;8.73;;;5.33;;
27847;SDS011;15212;48.830;8.730;2023-09-12T14:33:15;7.17;;;5.67;;
27847;SDS011;15212;48.830;8.730;2023-09-12T14:35:44;6.70;;;5.53;;
27847;SDS011;15212;48.830;8.730;2023-09-12T14:38:14;7.55;;;5.30;;
27847;SDS011;15212;48.830;8.730;2023-09-12T14:40:43;9.43;;;5.33;;
27847;SDS011;15212;48.830;8.730;2023-09-12T14:43:11;10.15;;;5.20;;
27847;SDS011;15212;48.830;8.730;2023-09-12T14:45:40;6.05;;;4.95;;
27847;SDS011;15212;48.830;8.730;2023-09-12T14:48:08;11.12;;;5.80;;
27847;SDS011;15212;48.830;8.730;2023-09-12T14:50:37;8.18;;;5.03;;
27847;SDS011;15212;48.830;8.730;2023-09-12T14:53:05;5.45;;;4.92;;
27847;SDS011;15212;48.830;8.730;2023-09-12T14:55:34;8.20;;;5.10;;
27847;SDS011;15212;48.830;8.730;2023-09-12T14:58:02;7.58;;;5.47;;
27847;SDS011;15212;48.830;8.730;2023-09-12T15:00:31;6.45;;;5.08;;
27847;SDS011;15212;48.830;8.730;2023-09-12T15:03:02;8.65;;;4.60;;
27847;SDS011;15212;48.830;8.730;2023-09-12T15:05:31;8.43;;;5.10;;